EmailTwitter


Observations de surface / France / LFBP (07610)

Régions: Québec | Canada | États-Unis | Europe | France | UK | Ailleurs
Station
Affichage
Infos & localisation pour LFBP (07610) | Aide pour décoder les METARs

Observations prises le 2018-12-15 à 21H00 UTC à PONT-LONG-UZEIN/, FR (LFBP)

Etat du ciel: partiellement nuageux.

Température: 11.0 Celsius

Point de rosée: 10.0 Celsius

Humidité relative: 94%

Vents: Variable à 4 km/h ou 2 noeuds.

Pression au niveau moyen de la mer: 101.60 kilopascals.

Visibilité horizontale: 6.21 milles terrestres ou 9.94 kilomètres.

Hauteur du plafond: 2804 mètres ( 9200 pieds ).

Observation METAR:

LFBP 152100Z AUTO VRB02KT 9999 BKN092 BKN130 BKN160 11/10 Q1016 TEMPO 4000 -RA=